Time;durP1;ratioP1;P1;durP2;ratioP2;P2;SDS_P1;SDS_P2;PMS_P1;PMS_P2;Temp;Humidity;BMP_temperature;BMP_pressure;BME280_temperature;BME280_humidity;BME280_pressure;Samples;Min_cycle;Max_cycle;Signal;HPM_P1;HPM_P2
2021/04/03 00:02:21;;;;;;;4.75;1.42;;;;;;;16.81;33.19;99803.91;4742323;30;20052;-73
2021/04/03 00:05:27;;;;;;;5.63;1.38;;;;;;;16.75;33.81;99797.34;4741042;30;20063;-76
2021/04/03 00:08:32;;;;;;;3.35;1.35;;;;;;;16.65;34.50;99806.78;4743584;30;20063;-75
2021/04/03 00:11:36;;;;;;;3.90;1.45;;;;;;;16.61;34.41;99814.47;4744000;30;20063;-73
2021/04/03 00:14:41;;;;;;;5.30;1.40;;;;;;;16.49;35.26;99807.75;4736958;30;20056;-74
2021/04/03 00:17:45;;;;;;;6.30;1.80;;;;;;;16.47;36.06;99790.00;4739082;30;20063;-73
2021/04/03 00:20:50;;;;;;;5.65;1.60;;;;;;;16.23;34.87;99777.56;4740974;30;20060;-73
2021/04/03 00:23:54;;;;;;;4.35;1.45;;;;;;;16.15;33.82;99781.22;4743657;30;20056;-74
2021/04/03 00:26:59;;;;;;;3.53;1.63;;;;;;;16.23;34.11;99774.88;4739266;30;20059;-75
2021/04/03 00:30:15;;;;;;;5.38;1.58;;;;;;;16.29;34.45;99774.16;4741615;30;20056;-75
2021/04/03 00:33:19;;;;;;;4.60;1.52;;;;;;;16.31;34.46;99776.66;4740218;30;20051;-74
2021/04/03 00:36:25;;;;;;;3.65;1.40;;;;;;;16.36;34.39;99769.66;4726684;30;20059;-75
2021/04/03 00:39:29;;;;;;;5.80;1.52;;;;;;;16.32;34.66;99757.50;4741040;30;20048;-75
2021/04/03 00:42:33;;;;;;;5.85;1.63;;;;;;;16.21;35.16;99756.09;4744674;30;20067;-75
2021/04/03 00:45:38;;;;;;;8.35;1.70;;;;;;;16.27;34.83;99763.47;4742835;30;20047;-74
2021/04/03 00:48:42;;;;;;;4.10;1.55;;;;;;;16.27;34.82;99760.75;4744161;30;20059;-73
2021/04/03 00:51:47;;;;;;;4.65;1.50;;;;;;;16.37;34.66;99757.78;4744454;30;20071;-74
2021/04/03 00:54:52;;;;;;;7.60;1.60;;;;;;;16.35;35.07;99754.41;4746233;30;20063;-72
2021/04/03 00:57:56;;;;;;;3.75;1.58;;;;;;;16.39;35.13;99754.91;4741962;30;20449;-73
2021/04/03 01:01:04;;;;;;;4.50;1.60;;;;;;;16.35;35.54;99756.28;4742798;30;20412;-71
2021/04/03 01:04:12;;;;;;;5.30;1.50;;;;;;;16.27;35.79;99760.75;4745806;30;20165;-74
2021/04/03 01:07:16;;;;;;;6.97;1.65;;;;;;;16.20;36.17;99753.56;4743179;30;20063;-73
2021/04/03 01:10:25;;;;;;;6.68;1.42;;;;;;;16.20;36.64;99754.41;4743278;30;20059;-73
2021/04/03 01:13:48;;;;;;;6.00;1.52;;;;;;;16.16;37.16;99750.41;4744786;30;20516;-73
2021/04/03 01:17:21;;;;;;;3.97;1.50;;;;;;;16.12;38.14;99734.72;4741834;30;20047;-73
2021/04/03 01:20:40;;;;;;;4.15;1.45;;;;;;;16.09;38.71;99744.06;4740348;30;20420;-75
2021/04/03 01:24:07;;;;;;;5.47;1.50;;;;;;;16.03;39.16;99752.06;4743085;30;20059;-76
2021/04/03 01:27:20;;;;;;;4.60;1.70;;;;;;;16.01;39.07;99757.66;4744281;30;20067;-74
2021/04/03 01:30:27;;;;;;;11.30;1.63;;;;;;;15.88;39.40;99762.84;4743569;30;20400;-75
2021/04/03 01:33:44;;;;;;;4.85;1.33;;;;;;;15.88;39.02;99770.97;4744578;30;20409;-76
2021/04/03 01:36:49;;;;;;;3.92;1.30;;;;;;;15.87;38.83;99755.78;4743765;30;20056;-73
2021/04/03 01:39:56;;;;;;;7.32;2.00;;;;;;;15.91;38.88;99756.22;4745370;30;20081;-75
2021/04/03 01:43:19;;;;;;;4.80;1.60;;;;;;;15.93;38.66;99751.47;4738685;30;20421;-73
2021/04/03 01:46:27;;;;;;;;;;;;;;;15.87;38.99;99763.91;4743130;30;20059;-73
2021/04/03 01:49:34;;;;;;;6.25;2.45;;;;;;;15.89;39.00;99774.53;4744230;30;19927;-75
2021/04/03 01:52:41;;;;;;;6.05;1.90;;;;;;;15.80;39.07;99789.16;4741533;30;20056;-74
2021/04/03 01:55:47;;;;;;;9.70;2.83;;;;;;;15.67;39.45;99789.75;4742707;30;20068;-73
2021/04/03 01:58:52;;;;;;;9.50;2.78;;;;;;;15.58;39.87;99772.75;4744874;30;20067;-74
2021/04/03 02:01:58;;;;;;;7.93;2.80;;;;;;;15.50;40.17;99763.84;4745297;30;20064;-74
2021/04/03 02:05:05;;;;;;;10.13;3.08;;;;;;;15.46;40.42;99762.50;4741934;30;20409;-72
2021/04/03 02:08:13;;;;;;;8.82;3.35;;;;;;;15.40;40.54;99765.94;4744295;30;20052;-74
2021/04/03 02:11:21;;;;;;;8.10;3.20;;;;;;;15.39;40.87;99764.22;4741825;30;20059;-72
2021/04/03 02:14:30;;;;;;;6.15;3.15;;;;;;;15.30;41.00;99770.72;4743159;30;20060;-73
2021/04/03 02:17:37;;;;;;;10.07;3.45;;;;;;;15.08;41.67;99782.34;4744351;30;20075;-74
2021/04/03 02:20:42;;;;;;;17.02;3.70;;;;;;;14.95;41.85;99772.97;4743300;30;20505;-73
2021/04/03 02:23:46;;;;;;;10.07;3.45;;;;;;;14.81;42.41;99762.06;4743338;30;20055;-73
2021/04/03 02:26:51;;;;;;;7.20;3.70;;;;;;;14.84;42.21;99770.63;4743160;30;20055;-74
2021/04/03 02:29:57;;;;;;;10.65;4.22;;;;;;;14.69;42.83;99763.47;4744906;30;20144;-72
2021/04/03 02:33:01;;;;;;;10.15;3.58;;;;;;;14.59;43.08;99758.25;4732916;30;20056;-74
2021/04/03 02:36:08;;;;;;;9.48;3.80;;;;;;;14.54;43.38;99743.59;4742294;30;20446;-74
2021/04/03 02:39:13;;;;;;;9.35;3.47;;;;;;;14.51;43.24;99752.03;4743228;30;20080;-74
2021/04/03 02:42:22;;;;;;;6.05;3.40;;;;;;;14.51;43.32;99747.50;4744846;30;20058;-73
2021/04/03 02:46:20;;;;;;;10.20;3.53;;;;;;;14.52;43.37;99759.97;4742691;30;20052;-72
2021/04/03 02:49:31;;;;;;;14.50;3.40;;;;;;;14.40;43.73;99757.81;4757778;30;20121;-72
2021/04/03 02:52:38;;;;;;;9.70;3.45;;;;;;;14.41;44.05;99757.66;4750022;30;20050;-73
2021/04/03 02:55:53;;;;;;;5.97;3.22;;;;;;;14.44;44.01;99760.00;4757048;30;20055;-74
2021/04/03 02:59:00;;;;;;;10.60;4.20;;;;;;;14.36;44.15;99751.94;4750195;30;20160;-74
2021/04/03 03:02:06;;;;;;;7.10;3.17;;;;;;;14.27;43.88;99753.75;4747039;30;20055;-71
2021/04/03 03:05:12;;;;;;;8.05;3.17;;;;;;;14.20;44.36;99738.41;4758938;30;20681;-72
2021/04/03 03:08:18;;;;;;;6.50;3.15;;;;;;;14.11;44.46;99740.31;4749763;30;20523;-73
2021/04/03 03:11:26;;;;;;;8.45;3.58;;;;;;;14.17;44.23;99750.41;4757270;30;20065;-73
2021/04/03 03:14:32;;;;;;;7.43;3.20;;;;;;;14.23;44.67;99755.13;4758856;30;20059;-74
2021/04/03 03:17:37;;;;;;;9.70;3.95;;;;;;;14.23;44.28;99743.47;4759889;30;20050;-74
2021/04/03 03:20:43;;;;;;;9.57;5.07;;;;;;;14.24;44.43;99748.72;4754262;30;20140;-73
2021/04/03 03:23:52;;;;;;;7.80;2.90;;;;;;;14.20;45.35;99743.81;4757556;30;20622;-74
2021/04/03 03:26:58;;;;;;;13.45;3.75;;;;;;;14.06;45.49;99737.28;4742491;30;20063;-74
2021/04/03 03:30:06;;;;;;;11.25;3.63;;;;;;;14.19;45.16;99744.84;4741734;30;20082;-73
2021/04/03 03:33:15;;;;;;;12.30;3.53;;;;;;;14.15;45.83;99744.34;4742826;30;20154;-73
2021/04/03 03:36:20;;;;;;;11.70;3.45;;;;;;;14.10;46.37;99743.16;4743639;30;20066;-73
2021/04/03 03:39:28;;;;;;;9.60;3.30;;;;;;;14.02;46.15;99735.94;4741519;30;20051;-73
2021/04/03 03:42:35;;;;;;;8.93;3.55;;;;;;;14.07;46.22;99744.34;4742744;30;20062;-72
2021/04/03 03:45:47;;;;;;;7.68;3.20;;;;;;;14.12;46.31;99746.56;4731960;30;20279;-73
2021/04/03 03:48:53;;;;;;;10.93;4.40;;;;;;;14.13;46.81;99748.22;4742561;30;20052;-73
2021/04/03 03:51:57;;;;;;;7.35;3.17;;;;;;;14.08;46.77;99746.03;4743040;30;20055;-75
2021/04/03 03:55:03;;;;;;;11.43;3.88;;;;;;;14.05;46.96;99740.13;4740396;30;20533;-74
2021/04/03 03:58:08;;;;;;;10.00;3.70;;;;;;;13.93;47.85;99752.31;4741022;30;20056;-73
2021/04/03 04:01:18;;;;;;;9.18;3.35;;;;;;;13.97;47.88;99745.56;4743080;30;20051;-73
2021/04/03 04:04:23;;;;;;;11.02;3.72;;;;;;;13.90;48.28;99755.38;4742236;30;20059;-74
2021/04/03 04:07:35;;;;;;;10.40;3.88;;;;;;;13.83;47.29;99765.13;4741462;30;20413;-73
2021/04/03 04:10:41;;;;;;;9.57;3.85;;;;;;;13.84;46.74;99764.13;4742461;30;20055;-75
2021/04/03 04:13:47;;;;;;;9.63;3.95;;;;;;;13.91;45.75;99773.22;4741706;30;20393;-75
2021/04/03 04:16:57;;;;;;;9.07;3.70;;;;;;;13.95;45.72;99777.28;4745388;30;20055;-74
2021/04/03 04:20:08;;;;;;;13.55;4.35;;;;;;;13.90;45.52;99782.34;4745111;30;20052;-73
2021/04/03 04:23:17;;;;;;;10.55;4.18;;;;;;;13.98;45.18;99787.72;4746339;30;20067;-74
2021/04/03 04:26:26;;;;;;;9.95;4.88;;;;;;;13.95;44.87;99793.47;4743437;30;20117;-72
2021/04/03 04:29:33;;;;;;;15.35;4.45;;;;;;;13.87;44.94;99791.63;4744981;30;20091;-75
2021/04/03 04:32:41;;;;;;;8.38;3.63;;;;;;;13.89;44.70;99799.53;4746241;30;20051;-72
2021/04/03 04:35:47;;;;;;;8.57;4.15;;;;;;;13.91;44.70;99802.91;4743710;30;20051;-74
2021/04/03 04:38:57;;;;;;;7.00;4.00;;;;;;;13.88;44.34;99805.94;4742604;30;20420;-74
2021/04/03 04:42:05;;;;;;;12.40;4.60;;;;;;;13.91;44.67;99811.00;4738677;30;20523;-74
2021/04/03 04:45:15;;;;;;;6.93;3.60;;;;;;;13.94;44.48;99811.50;4745081;30;20060;-74
2021/04/03 04:48:20;;;;;;;9.20;3.67;;;;;;;13.93;44.91;99827.84;4745022;30;20063;-72
2021/04/03 04:51:31;;;;;;;6.57;3.75;;;;;;;13.93;45.12;99831.41;4744739;30;20051;-74
2021/04/03 04:54:45;;;;;;;11.57;4.40;;;;;;;13.90;44.92;99830.91;4741749;30;20055;-75
2021/04/03 04:57:52;;;;;;;11.23;4.60;;;;;;;13.83;45.51;99836.13;4733348;30;20056;-74
2021/04/03 05:01:02;;;;;;;11.48;4.57;;;;;;;13.79;46.67;99845.56;4741919;30;20060;-73
2021/04/03 05:04:17;;;;;;;15.68;4.80;;;;;;;13.82;46.93;99847.09;4745228;30;20063;-74
2021/04/03 05:07:21;;;;;;;14.43;4.30;;;;;;;13.78;47.98;99851.97;4745710;30;20063;-73
2021/04/03 05:10:26;;;;;;;11.85;3.80;;;;;;;13.91;48.32;99862.25;4742414;30;20055;-73
2021/04/03 05:13:30;;;;;;;14.48;3.67;;;;;;;13.92;48.36;99874.75;4743487;30;20059;-73
2021/04/03 05:16:35;;;;;;;10.63;3.83;;;;;;;13.77;48.02;99866.47;4744675;30;20055;-74
2021/04/03 05:19:39;;;;;;;12.20;3.88;;;;;;;13.87;48.06;99888.75;4745207;30;20055;-73
2021/04/03 05:22:43;;;;;;;12.77;4.25;;;;;;;13.75;47.91;99887.38;4744017;30;20059;-73
2021/04/03 05:25:48;;;;;;;12.55;4.07;;;;;;;13.59;47.98;99884.66;4742329;30;20051;-74
2021/04/03 05:28:52;;;;;;;11.25;4.20;;;;;;;13.56;47.66;99896.59;4743712;30;20404;-71
2021/04/03 05:31:56;;;;;;;9.35;3.40;;;;;;;13.54;47.78;99901.31;4744676;30;20055;-74
2021/04/03 05:35:01;;;;;;;13.05;4.50;;;;;;;13.49;47.12;99911.75;4745107;30;20055;-73
2021/04/03 05:38:05;;;;;;;9.00;4.47;;;;;;;13.50;47.85;99912.59;4743921;30;20051;-73
2021/04/03 05:41:09;;;;;;;14.70;4.63;;;;;;;13.57;48.13;99913.63;4742667;30;20060;-74
2021/04/03 05:44:14;;;;;;;22.45;5.90;;;;;;;13.62;48.65;99920.22;4743846;30;20064;-75
2021/04/03 05:47:20;;;;;;;12.48;4.95;;;;;;;13.77;48.74;99924.97;4744703;30;20549;-72
2021/04/03 05:50:25;;;;;;;18.90;5.45;;;;;;;13.80;49.62;99924.66;4740348;30;20064;-72
2021/04/03 05:53:30;;;;;;;9.20;4.45;;;;;;;13.88;50.07;99930.88;4742397;30;20550;-73
2021/04/03 05:56:35;;;;;;;15.68;5.55;;;;;;;14.01;49.58;99927.72;4738378;30;20063;-74
2021/04/03 05:59:40;;;;;;;19.48;4.82;;;;;;;14.16;48.82;99926.03;4744496;30;20059;-74
2021/04/03 06:02:44;;;;;;;13.70;4.63;;;;;;;14.20;49.29;99938.19;4739306;30;20055;-74
2021/04/03 06:05:52;;;;;;;14.43;5.10;;;;;;;14.20;48.94;99936.31;4742454;30;20149;-73
2021/04/03 06:08:56;;;;;;;14.70;5.22;;;;;;;14.21;48.60;99931.78;4742897;30;20052;-72
2021/04/03 06:12:00;;;;;;;16.60;6.18;;;;;;;14.28;48.22;99935.50;4742277;30;20055;-74
2021/04/03 06:15:06;;;;;;;17.92;9.40;;;;;;;14.10;51.50;99935.63;4740278;30;20048;-72
2021/04/03 06:18:12;;;;;;;20.58;10.45;;;;;;;14.04;53.34;99927.38;4743605;30;20056;-74
2021/04/03 06:21:16;;;;;;;38.22;21.60;;;;;;;14.00;62.00;99942.22;4743060;30;20056;-75
2021/04/03 06:24:42;;;;;;;31.85;22.33;;;;;;;13.96;63.97;99943.56;4744142;30;20095;-75
2021/04/03 06:27:46;;;;;;;41.40;24.80;;;;;;;13.94;65.96;99948.28;4740593;30;20059;-75
2021/04/03 06:31:18;;;;;;;51.38;30.33;;;;;;;14.00;69.89;99947.63;4739538;30;20063;-73
2021/04/03 06:34:37;;;;;;;56.90;37.65;;;;;;;14.05;73.82;99947.94;4742325;30;20059;-75
2021/04/03 06:37:41;;;;;;;65.25;44.45;;;;;;;13.96;76.37;99948.94;4741250;30;20059;-73
2021/04/03 06:40:45;;;;;;;73.63;48.75;;;;;;;13.70;79.50;99951.78;4741494;30;20417;-74
2021/04/03 06:44:07;;;;;;;71.32;48.38;;;;;;;14.05;79.74;99951.50;4740692;30;20500;-75
2021/04/03 06:47:12;;;;;;;71.32;45.72;;;;;;;14.55;77.17;99943.28;4738982;30;20420;-75
2021/04/03 06:50:20;;;;;;;61.30;43.13;;;;;;;15.02;75.70;99956.03;4743008;30;20057;-74
2021/04/03 06:53:24;;;;;;;70.35;43.83;;;;;;;15.66;73.66;99953.13;4740679;30;20068;-73
2021/04/03 06:56:31;;;;;;;61.85;42.70;;;;;;;16.74;70.13;99933.88;4726336;30;20071;-77
2021/04/03 06:59:35;;;;;;;61.72;42.67;;;;;;;17.23;67.59;99931.50;4735320;30;20064;-74
2021/04/03 07:02:56;;;;;;;66.00;46.35;;;;;;;17.26;67.09;99933.84;4735799;30;20068;-73
2021/04/03 07:06:01;;;;;;;52.75;39.22;;;;;;;17.73;65.03;99944.28;4733556;30;20051;-74
2021/04/03 07:09:07;;;;;;;52.30;37.25;;;;;;;18.03;63.50;99943.19;4717918;30;20060;-70
2021/04/03 07:12:14;;;;;;;43.17;34.75;;;;;;;18.18;63.11;99945.84;4719562;30;20509;-70
2021/04/03 07:15:19;;;;;;;46.05;34.83;;;;;;;18.65;61.71;99948.84;4743668;30;20055;-70
2021/04/03 07:18:27;;;;;;;61.47;35.03;;;;;;;19.23;59.69;99950.28;4741260;30;20059;-71
2021/04/03 07:21:31;;;;;;;43.13;32.97;;;;;;;19.48;58.90;99945.22;4740130;30;20071;-68
2021/04/03 07:24:36;;;;;;;39.83;30.50;;;;;;;20.29;56.85;99955.22;4718413;30;20063;-70
2021/04/03 07:27:46;;;;;;;37.15;28.83;;;;;;;21.04;53.89;99954.78;4718317;30;20394;-69
2021/04/03 07:30:50;;;;;;;34.95;27.55;;;;;;;24.86;43.93;99954.91;4725063;30;20052;-72
2021/04/03 07:33:55;;;;;;;36.00;26.33;;;;;;;29.47;35.03;99941.56;4739228;30;20055;-71
2021/04/03 07:36:59;;;;;;;37.50;25.23;;;;;;;31.49;31.20;99950.31;4730491;30;20060;-76
2021/04/03 07:40:04;;;;;;;34.78;24.13;;;;;;;33.26;28.34;99952.91;4725590;30;20068;-73
2021/04/03 07:43:27;;;;;;;29.40;24.00;;;;;;;34.70;26.67;99950.59;4735723;30;20401;-75
2021/04/03 07:46:41;;;;;;;30.95;22.67;;;;;;;33.78;27.07;99960.44;4733747;30;20505;-74
2021/04/03 07:49:45;;;;;;;32.10;23.13;;;;;;;32.70;28.51;99964.50;4715583;30;20056;-73
2021/04/03 07:52:54;;;;;;;27.77;23.35;;;;;;;31.60;30.22;99960.28;4717846;30;20064;-74
2021/04/03 07:55:59;;;;;;;30.17;23.73;;;;;;;32.20;29.46;99962.00;4717525;30;20060;-75
2021/04/03 07:59:04;;;;;;;29.23;24.50;;;;;;;32.73;28.84;99975.06;4718486;30;20083;-75
2021/04/03 08:02:14;;;;;;;30.60;23.63;;;;;;;32.98;28.50;99970.41;4718296;30;20056;-74
2021/04/03 08:05:18;;;;;;;27.92;23.10;;;;;;;33.37;27.98;99982.31;4721595;30;20056;-73
2021/04/03 08:08:23;;;;;;;26.90;21.63;;;;;;;32.18;29.44;99980.91;4730571;30;20076;-74
2021/04/03 08:11:28;;;;;;;25.30;22.25;;;;;;;33.05;28.24;99987.63;4721507;30;20060;-74
2021/04/03 08:14:34;;;;;;;25.35;21.30;;;;;;;33.78;27.64;99980.78;4721521;30;20060;-73
2021/04/03 08:17:39;;;;;;;24.33;21.38;;;;;;;31.92;29.98;99991.28;4721368;30;20075;-74
2021/04/03 08:20:53;;;;;;;29.77;20.17;;;;;;;29.25;33.36;99995.34;4721085;30;20060;-74
2021/04/03 08:23:58;;;;;;;26.52;21.02;;;;;;;27.80;36.85;99995.38;4720781;30;20394;-73
2021/04/03 08:27:03;;;;;;;32.22;23.98;;;;;;;24.40;43.53;100005.00;4721400;30;20076;-74
2021/04/03 08:30:21;;;;;;;32.92;23.83;;;;;;;22.38;48.74;100000.41;4721243;30;20053;-73
2021/04/03 08:33:31;;;;;;;35.03;27.10;;;;;;;21.06;53.27;100015.50;4721141;30;20402;-72
2021/04/03 08:36:36;;;;;;;38.55;30.25;;;;;;;22.26;49.88;100007.66;4721041;30;20052;-73
2021/04/03 08:39:41;;;;;;;35.50;25.40;;;;;;;23.87;46.37;100006.72;4729946;30;20054;-73
2021/04/03 08:42:45;;;;;;;30.75;23.27;;;;;;;27.41;38.28;100000.03;4720513;30;20053;-73
2021/04/03 08:45:50;;;;;;;32.38;23.70;;;;;;;26.60;39.88;100008.78;4721005;30;20053;-74
2021/04/03 08:48:58;;;;;;;29.73;22.83;;;;;;;23.44;46.39;100020.47;4720955;30;20049;-73
2021/04/03 08:52:05;;;;;;;30.00;20.65;;;;;;;21.54;51.21;100024.28;4720822;30;20045;-73
2021/04/03 08:55:10;;;;;;;26.17;19.55;;;;;;;23.00;47.82;100026.13;4730106;30;20053;-73
2021/04/03 08:58:15;;;;;;;25.17;16.33;;;;;;;26.15;39.85;100011.47;4720783;30;20057;-73
2021/04/03 09:01:22;;;;;;;23.67;13.98;;;;;;;28.32;35.13;100013.16;4729396;30;20053;-74
2021/04/03 09:04:29;;;;;;;17.10;13.43;;;;;;;26.11;37.69;100013.91;4720647;30;20057;-73
2021/04/03 09:07:35;;;;;;;20.77;14.63;;;;;;;23.59;43.39;100033.81;4720568;30;20057;-74
2021/04/03 09:10:39;;;;;;;17.73;14.25;;;;;;;23.00;45.47;100037.06;4720794;30;20057;-73
2021/04/03 09:13:45;;;;;;;27.60;15.70;;;;;;;22.21;46.80;100032.06;4720506;30;20053;-75
2021/04/03 09:16:50;;;;;;;19.77;16.40;;;;;;;22.39;47.86;100040.38;4720494;30;20057;-74
2021/04/03 09:20:11;;;;;;;21.08;16.75;;;;;;;22.30;48.69;100041.69;4720460;30;20496;-73
2021/04/03 09:23:23;;;;;;;23.08;16.02;;;;;;;21.72;49.01;100051.78;4729665;30;20053;-73
2021/04/03 09:26:35;;;;;;;21.33;15.45;;;;;;;21.27;49.49;100050.78;4720192;30;20061;-74
2021/04/03 09:29:41;;;;;;;18.92;15.45;;;;;;;21.11;50.43;100055.84;4729484;30;20049;-72
2021/04/03 09:32:47;;;;;;;18.70;14.45;;;;;;;21.08;50.83;100054.38;4729496;30;20057;-73
2021/04/03 09:35:53;;;;;;;23.08;15.80;;;;;;;21.40;50.16;100048.03;4720098;30;20489;-74
2021/04/03 09:38:57;;;;;;;21.33;14.85;;;;;;;21.19;50.30;100052.88;4708955;30;20061;-74
2021/04/03 09:42:11;;;;;;;20.20;15.43;;;;;;;21.13;50.90;100060.00;4718179;30;20057;-71
2021/04/03 09:45:16;;;;;;;24.05;15.45;;;;;;;20.84;51.80;100071.28;4718857;30;20057;-73
2021/04/03 09:48:20;;;;;;;24.05;16.13;;;;;;;20.79;52.20;100068.34;4718772;30;20053;-74
2021/04/03 09:51:25;;;;;;;23.05;14.85;;;;;;;20.29;53.74;100082.47;4719042;30;20053;-71
2021/04/03 09:54:29;;;;;;;22.95;14.57;;;;;;;19.87;55.43;100081.63;4718788;30;20478;-72
2021/04/03 09:57:34;;;;;;;26.73;13.93;;;;;;;19.71;56.54;100083.81;4718272;30;20057;-76
2021/04/03 10:00:38;;;;;;;20.77;15.25;;;;;;;19.28;57.73;100081.16;4718939;30;20049;-74
2021/04/03 10:03:43;;;;;;;24.25;13.95;;;;;;;19.50;57.31;100076.56;4718079;30;20485;-73
2021/04/03 10:06:47;;;;;;;20.95;13.75;;;;;;;19.81;55.62;100074.25;4717967;30;20049;-74
2021/04/03 10:09:51;;;;;;;21.40;13.38;;;;;;;20.08;55.88;100084.25;4718752;30;20053;-72
2021/04/03 10:12:56;;;;;;;19.67;13.20;;;;;;;20.26;55.38;100070.09;4717687;30;20053;-74
2021/04/03 10:16:00;;;;;;;19.98;11.70;;;;;;;20.57;54.41;100078.59;4718695;30;20395;-74
2021/04/03 10:19:06;;;;;;;23.63;16.02;;;;;;;20.59;54.29;100072.94;4718889;30;20061;-74
2021/04/03 10:22:11;;;;;;;32.13;17.35;;;;;;;20.40;54.84;100073.69;4718576;30;20057;-74
2021/04/03 10:25:16;;;;;;;18.55;13.23;;;;;;;20.46;54.32;100079.19;4727672;30;20049;-74
2021/04/03 10:28:20;;;;;;;21.70;13.35;;;;;;;20.64;54.65;100086.81;4718415;30;20053;-73
2021/04/03 10:31:25;;;;;;;22.00;12.30;;;;;;;20.26;54.52;100088.34;4717679;30;20049;-74
2021/04/03 10:34:29;;;;;;;21.92;12.20;;;;;;;19.36;58.81;100107.41;4718423;30;20045;-74
2021/04/03 10:37:34;;;;;;;27.88;11.52;;;;;;;18.18;64.00;100103.41;4718408;30;20045;-75
2021/04/03 10:40:38;;;;;;;20.67;12.52;;;;;;;17.58;66.68;100105.50;4687286;30;957008;-73
2021/04/03 10:43:43;;;;;;;25.65;12.60;;;;;;;17.28;68.79;100123.56;4718529;30;20053;-74
2021/04/03 10:46:47;;;;;;;18.30;13.40;;;;;;;17.15;70.54;100123.34;4718643;30;20053;-73
2021/04/03 10:49:51;;;;;;;20.55;13.88;;;;;;;17.07;70.44;100113.38;4718806;30;20048;-73
2021/04/03 10:52:56;;;;;;;30.30;14.02;;;;;;;16.91;71.37;100121.66;4718885;30;20508;-73
2021/04/03 10:56:00;;;;;;;32.25;14.60;;;;;;;17.10;71.47;100104.91;4718808;30;20053;-74
2021/04/03 10:59:04;;;;;;;30.50;15.75;;;;;;;17.39;69.94;100094.09;4718837;30;20057;-75
2021/04/03 11:02:09;;;;;;;35.17;13.80;;;;;;;17.55;70.07;100106.72;4718762;30;20049;-73
2021/04/03 11:05:13;;;;;;;24.45;13.32;;;;;;;17.44;69.09;100105.25;4728019;30;20394;-73
2021/04/03 11:08:18;;;;;;;24.92;11.50;;;;;;;17.33;68.20;100108.41;4718599;30;20060;-73
2021/04/03 11:11:22;;;;;;;28.13;11.50;;;;;;;17.60;66.91;100117.00;4727986;30;20049;-74
2021/04/03 11:14:36;;;;;;;29.30;11.45;;;;;;;17.84;67.16;100106.72;4718550;30;20045;-76
2021/04/03 11:17:40;;;;;;;32.45;10.77;;;;;;;18.00;65.91;100125.53;4718304;30;20394;-73
2021/04/03 11:20:44;;;;;;;23.05;10.00;;;;;;;17.96;65.83;100124.22;4718286;30;20057;-74
2021/04/03 11:23:50;;;;;;;32.22;8.70;;;;;;;17.83;65.75;100118.59;4717945;30;20053;-72
2021/04/03 11:26:55;;;;;;;20.63;8.93;;;;;;;18.07;65.64;100110.16;4718334;30;20504;-73
2021/04/03 11:30:13;;;;;;;21.98;9.25;;;;;;;18.31;64.44;100113.63;4718411;30;20060;-72
2021/04/03 11:33:19;;;;;;;19.30;6.45;;;;;;;18.20;60.82;100112.22;4718095;30;20067;-74
2021/04/03 11:36:24;;;;;;;19.83;6.72;;;;;;;18.18;61.74;100119.72;4727608;30;20052;-73
2021/04/03 11:39:28;;;;;;;22.80;6.45;;;;;;;18.27;61.16;100115.84;4717949;30;20060;-73
2021/04/03 11:42:33;;;;;;;36.10;7.88;;;;;;;18.33;60.03;100128.69;4718318;30;20118;-73
2021/04/03 11:45:38;;;;;;;20.60;6.45;;;;;;;18.13;59.08;100124.88;4718231;30;20072;-74
2021/04/03 11:48:42;;;;;;;18.60;6.00;;;;;;;18.15;58.76;100131.81;4718146;30;20516;-73
2021/04/03 11:51:48;;;;;;;21.02;6.15;;;;;;;17.78;60.23;100128.34;4718137;30;20061;-74
2021/04/03 11:54:52;;;;;;;22.75;6.40;;;;;;;17.36;61.70;100127.03;4718110;30;20048;-74
2021/04/03 11:57:57;;;;;;;47.63;24.55;;;;;;;17.31;61.64;100136.75;4718202;30;20056;-72
2021/04/03 12:01:03;;;;;;;22.27;6.07;;;;;;;17.34;61.24;100134.50;4717829;30;20053;-72
2021/04/03 12:04:08;;;;;;;19.10;5.63;;;;;;;17.35;60.89;100130.78;4727215;30;20459;-73
2021/04/03 12:07:12;;;;;;;31.05;6.22;;;;;;;17.72;59.88;100138.09;4726438;30;20056;-71
2021/04/03 12:10:17;;;;;;;13.02;5.15;;;;;;;17.76;59.29;100139.41;4733003;30;20070;-71
2021/04/03 12:13:21;;;;;;;23.80;5.57;;;;;;;17.47;59.61;100161.88;4734461;30;20064;-71
2021/04/03 12:16:25;;;;;;;19.38;4.78;;;;;;;17.44;60.01;100155.97;4739904;30;20549;-71
2021/04/03 12:19:30;;;;;;;24.33;6.43;;;;;;;16.95;61.07;100155.53;4737513;30;20176;-70
2021/04/03 12:22:36;;;;;;;27.15;4.82;;;;;;;16.80;62.11;100157.31;4738926;30;20052;-72
2021/04/03 12:25:40;;;;;;;21.90;5.15;;;;;;;16.74;62.05;100158.00;4740390;30;20424;-71
2021/04/03 12:28:45;;;;;;;18.83;5.05;;;;;;;16.73;61.24;100169.91;4742547;30;20059;-72
2021/04/03 12:31:49;;;;;;;15.32;4.60;;;;;;;16.49;62.02;100161.88;4742311;30;20503;-71
2021/04/03 12:34:53;;;;;;;18.48;4.57;;;;;;;16.48;61.88;100165.59;4743793;30;20408;-71
2021/04/03 12:37:58;;;;;;;18.60;4.72;;;;;;;16.33;62.18;100164.66;4741314;30;20056;-71
2021/04/03 12:41:02;;;;;;;17.98;4.80;;;;;;;16.39;62.14;100153.97;4744445;30;20416;-74
2021/04/03 12:44:06;;;;;;;22.65;4.57;;;;;;;16.41;61.25;100154.63;4745230;30;20055;-75
2021/04/03 12:47:10;;;;;;;20.25;5.13;;;;;;;16.35;61.97;100147.19;4743991;30;20515;-75
2021/04/03 12:50:15;;;;;;;17.00;5.28;;;;;;;16.26;61.79;100141.00;4740896;30;20056;-75
2021/04/03 12:53:19;;;;;;;28.42;5.15;;;;;;;16.27;62.33;100142.66;4744178;30;20060;-75
2021/04/03 12:56:24;;;;;;;20.92;4.40;;;;;;;16.52;61.64;100137.16;4740355;30;20060;-74
2021/04/03 12:59:28;;;;;;;19.45;4.80;;;;;;;16.60;60.72;100123.56;4739714;30;20055;-75
2021/04/03 13:02:32;;;;;;;33.53;11.07;;;;;;;16.75;60.65;100127.19;4743325;30;20408;-74
2021/04/03 13:05:37;;;;;;;23.38;7.25;;;;;;;16.71;59.62;100137.53;4738808;30;20474;-76
2021/04/03 13:08:41;;;;;;;16.20;4.05;;;;;;;16.72;59.04;100124.81;4753269;30;20077;-72
2021/04/03 13:11:46;;;;;;;29.05;4.50;;;;;;;16.60;58.56;100126.28;4737058;30;20067;-74
2021/04/03 13:14:51;;;;;;;18.95;4.28;;;;;;;16.77;58.45;100108.88;4733977;30;20068;-74
2021/04/03 13:17:59;;;;;;;27.35;4.40;;;;;;;17.02;58.62;100118.50;4722804;30;20059;-75
2021/04/03 13:21:04;;;;;;;22.73;4.45;;;;;;;17.24;58.43;100123.06;4742578;30;20052;-75
2021/04/03 13:24:09;;;;;;;32.03;6.03;;;;;;;17.30;58.30;100116.94;4730650;30;20059;-74
2021/04/03 13:27:13;;;;;;;17.20;4.03;;;;;;;17.50;57.28;100120.78;4732525;30;20048;-73
2021/04/03 13:30:20;;;;;;;23.65;4.53;;;;;;;17.30;56.67;100129.66;4732094;30;20052;-72
2021/04/03 13:33:24;;;;;;;13.95;4.00;;;;;;;17.21;57.39;100128.84;4738888;30;20056;-74
2021/04/03 13:36:29;;;;;;;18.52;4.10;;;;;;;17.15;57.09;100128.75;4740872;30;20065;-74
2021/04/03 13:39:33;;;;;;;19.10;3.97;;;;;;;17.08;57.70;100127.81;4744723;30;20047;-74
2021/04/03 13:42:37;;;;;;;17.98;4.25;;;;;;;16.89;58.12;100137.25;4743057;30;20056;-75
2021/04/03 13:45:42;;;;;;;18.48;5.15;;;;;;;16.40;59.87;100130.41;4734057;30;20055;-76
2021/04/03 13:48:47;;;;;;;23.08;5.10;;;;;;;16.44;60.17;100131.75;4730078;30;20079;-75
2021/04/03 13:51:51;;;;;;;15.48;3.72;;;;;;;16.34;60.70;100136.56;4734035;30;20409;-73
2021/04/03 13:54:56;;;;;;;17.05;5.07;;;;;;;16.31;60.84;100129.63;4740620;30;20536;-75
2021/04/03 13:58:01;;;;;;;19.40;5.03;;;;;;;16.47;60.61;100128.66;4731080;30;20056;-76
2021/04/03 14:01:05;;;;;;;14.27;4.15;;;;;;;16.52;60.43;100121.72;4727765;30;20060;-74
2021/04/03 14:04:10;;;;;;;19.73;4.47;;;;;;;16.56;60.50;100130.38;4732535;30;20065;-75
2021/04/03 14:07:15;;;;;;;16.95;4.25;;;;;;;16.62;60.33;100135.06;4734693;30;20071;-74
2021/04/03 14:10:19;;;;;;;18.33;4.53;;;;;;;16.57;60.07;100135.59;4737334;30;20059;-73
2021/04/03 14:13:23;;;;;;;14.23;5.00;;;;;;;16.45;59.42;100136.13;4737275;30;20071;-77
2021/04/03 14:16:28;;;;;;;20.13;4.18;;;;;;;16.34;60.48;100134.69;4730573;30;20056;-75
2021/04/03 14:19:33;;;;;;;15.02;4.72;;;;;;;16.23;60.61;100124.22;4731524;30;20524;-75
2021/04/03 14:22:37;;;;;;;15.98;4.03;;;;;;;16.25;60.89;100125.75;4726964;30;20048;-74
2021/04/03 14:25:44;;;;;;;17.08;4.68;;;;;;;16.41;61.11;100126.69;4725717;30;20064;-73